createdAt,value
2023-05-10T00:04:39.552Z,101616.25
2023-05-10T00:09:42.639Z,101601.34
2023-05-10T00:14:47.073Z,101581.44
2023-05-10T00:19:50.013Z,101576.25
2023-05-10T00:24:53.064Z,101602.25
2023-05-10T00:29:56.114Z,101596.16
2023-05-10T00:34:59.385Z,101593.56
2023-05-10T00:40:03.842Z,101614.69
2023-05-10T00:45:07.991Z,101613.69
2023-05-10T00:50:12.157Z,101628.53
2023-05-10T00:55:15.293Z,101605.94
2023-05-10T01:00:19.643Z,101607.81
2023-05-10T01:05:23.178Z,101623.44
2023-05-10T01:10:27.399Z,101613.88
2023-05-10T01:15:31.337Z,101602.69
2023-05-10T01:20:42.740Z,101594.84
2023-05-10T01:26:39.162Z,101618.31
2023-05-10T01:31:45.117Z,101609.63
2023-05-10T01:37:09.172Z,101587.03
2023-05-10T01:42:15.717Z,101563.75
2023-05-10T01:47:38.715Z,101606.66
2023-05-10T01:52:46.092Z,101615.34
2023-05-10T01:57:54.140Z,101594.69
2023-05-10T02:02:58.545Z,101571.09
2023-05-10T02:08:02.921Z,101610.69
2023-05-10T02:13:08.676Z,101622.16
2023-05-10T02:18:13.051Z,101592.38
2023-05-10T02:23:18.618Z,101604.28
2023-05-10T02:28:23.829Z,101589.41
2023-05-10T02:33:31.629Z,101563.06
2023-05-10T02:38:36.139Z,101557.78
2023-05-10T02:43:41.403Z,101543.94
2023-05-10T02:48:44.477Z,101566.59
2023-05-10T02:53:48.437Z,101573.50
2023-05-10T02:58:51.470Z,101574.16
2023-05-10T03:03:54.732Z,101545.47
2023-05-10T03:08:58.816Z,101541.47
2023-05-10T03:14:13.867Z,101584.84
2023-05-10T03:19:24.141Z,101559.06
2023-05-10T03:24:29.639Z,101554.94
2023-05-10T03:29:35.271Z,101576.34
2023-05-10T03:34:44.142Z,101559.13
2023-05-10T03:39:47.296Z,101579.50
2023-05-10T03:44:51.253Z,101582.56
2023-05-10T03:49:54.251Z,101567.06
2023-05-10T03:54:57.357Z,101572.41
2023-05-10T04:00:01.078Z,101558.13
2023-05-10T04:05:05.906Z,101521.44
2023-05-10T04:10:09.767Z,101537.84
2023-05-10T04:15:12.894Z,101544.63
2023-05-10T04:20:16.375Z,101543.97
2023-05-10T04:25:19.717Z,101541.75
2023-05-10T04:30:23.026Z,101525.50
2023-05-10T04:35:26.013Z,101567.75
2023-05-10T04:40:28.934Z,101586.41
2023-05-10T04:45:31.921Z,101570.81
2023-05-10T04:50:34.934Z,101551.00
2023-05-10T04:55:38.212Z,101534.25
2023-05-10T05:00:41.339Z,101538.97
2023-05-10T05:05:45.828Z,101549.13
2023-05-10T05:10:51.534Z,101539.56
2023-05-10T05:15:54.813Z,101527.03
2023-05-10T05:20:57.870Z,101530.44
2023-05-10T05:26:00.843Z,101527.09
2023-05-10T05:31:04.257Z,101537.69
2023-05-10T05:36:07.554Z,101549.06
2023-05-10T05:41:10.521Z,101554.25
2023-05-10T05:46:13.573Z,101546.13
2023-05-10T05:51:16.546Z,101555.13
2023-05-10T05:56:25.649Z,101527.81
2023-05-10T06:01:28.871Z,101553.97
2023-05-10T06:06:33.550Z,101563.16
2023-05-10T06:11:37.294Z,101544.59
2023-05-10T06:16:40.436Z,101545.56
2023-05-10T06:21:43.521Z,101576.34
2023-05-10T06:26:46.608Z,101568.63
2023-05-10T06:31:49.711Z,101530.38
2023-05-10T06:36:53.077Z,101542.78
2023-05-10T06:41:56.013Z,101518.88
2023-05-10T06:46:59.098Z,101554.28
2023-05-10T06:52:02.131Z,101562.91
2023-05-10T06:57:10.739Z,101563.19
2023-05-10T07:02:19.678Z,101574.38
2023-05-10T07:07:22.966Z,101576.53
2023-05-10T07:12:26.460Z,101558.59
2023-05-10T07:17:29.788Z,101573.03
2023-05-10T07:22:32.935Z,101564.00
2023-05-10T07:27:36.256Z,101565.06
2023-05-10T07:32:40.807Z,101558.25
2023-05-10T07:37:43.841Z,101576.91
2023-05-10T07:42:46.875Z,101556.84
2023-05-10T07:47:49.949Z,101554.69
2023-05-10T07:52:53.017Z,101549.78
2023-05-10T07:57:56.004Z,101530.34
2023-05-10T08:02:59.257Z,101534.97
2023-05-10T08:08:02.455Z,101538.44
2023-05-10T08:13:05.627Z,101556.91
2023-05-10T08:18:08.733Z,101543.69
2023-05-10T08:23:13.584Z,101514.69
2023-05-10T08:28:16.805Z,101516.91
2023-05-10T08:33:20.825Z,101517.31
2023-05-10T08:38:24.832Z,101500.41
2023-05-10T08:43:31.644Z,101498.03
2023-05-10T08:48:36.177Z,101509.28
2023-05-10T08:53:39.557Z,101480.91
2023-05-10T08:58:42.898Z,101482.34
2023-05-10T09:03:48.055Z,101485.72
2023-05-10T09:08:51.341Z,101468.84
2023-05-10T09:13:54.497Z,101470.66
2023-05-10T09:18:57.622Z,101460.84
2023-05-10T09:24:05.006Z,101435.88
2023-05-10T09:29:09.766Z,101439.66
2023-05-10T09:34:12.791Z,101435.44
2023-05-10T09:39:15.739Z,101459.56
2023-05-10T09:44:21.871Z,101426.03
2023-05-10T09:49:24.836Z,101460.19
2023-05-10T09:54:27.926Z,101455.63
2023-05-10T09:59:31.608Z,101450.25
2023-05-10T10:04:41.151Z,101436.75
2023-05-10T10:09:44.262Z,101453.50
2023-05-10T10:14:51.742Z,101465.31
2023-05-10T10:19:56.246Z,101454.88
2023-05-10T10:25:00.334Z,101438.06
2023-05-10T10:30:06.351Z,101439.13
2023-05-10T10:35:10.809Z,101421.88
2023-05-10T10:40:34.818Z,101432.13
2023-05-10T10:45:42.199Z,101412.63
2023-05-10T10:50:47.789Z,101406.81
2023-05-10T10:55:50.630Z,101403.53
2023-05-10T11:01:11.562Z,101403.00
2023-05-10T11:06:14.804Z,101411.34
2023-05-10T11:11:18.844Z,101405.03
2023-05-10T11:16:28.163Z,101382.88
2023-05-10T11:21:32.907Z,101385.53
2023-05-10T11:26:37.054Z,101392.34
2023-05-10T11:31:48.042Z,101381.44
2023-05-10T11:36:55.656Z,101375.41
2023-05-10T11:41:59.480Z,101374.47
2023-05-10T11:47:03.355Z,101360.84
2023-05-10T11:52:10.308Z,101378.16
2023-05-10T11:57:13.395Z,101368.34
2023-05-10T12:02:16.525Z,101386.53
2023-05-10T12:07:19.649Z,101389.41
2023-05-10T12:12:22.653Z,101396.53
2023-05-10T12:17:30.224Z,101376.25
2023-05-10T12:22:36.312Z,101380.19
2023-05-10T12:27:39.282Z,101384.75
2023-05-10T12:32:45.764Z,101373.97
2023-05-10T12:37:49.127Z,101396.28
2023-05-10T12:42:53.509Z,101397.72
2023-05-10T12:47:56.655Z,101379.44
2023-05-10T12:52:59.708Z,101376.47
2023-05-10T12:58:02.676Z,101369.88
2023-05-10T13:03:08.700Z,101355.59
2023-05-10T13:08:11.793Z,101359.53
2023-05-10T13:13:15.400Z,101371.47
2023-05-10T13:18:18.531Z,101387.75
2023-05-10T13:23:21.641Z,101363.84
2023-05-10T13:28:24.688Z,101361.25
2023-05-10T13:33:28.640Z,101369.19
2023-05-10T13:38:31.587Z,101368.44
2023-05-10T13:43:34.567Z,101372.91
2023-05-10T13:48:40.750Z,101364.50
2023-05-10T13:53:43.763Z,101369.69
2023-05-10T13:58:46.944Z,101383.28
2023-05-10T14:03:50.150Z,101386.41
2023-05-10T14:08:53.344Z,101380.16
2023-05-10T14:13:56.480Z,101389.06
2023-05-10T14:18:59.516Z,101385.47
2023-05-10T14:24:02.721Z,101395.53
2023-05-10T14:29:05.822Z,101397.63
2023-05-10T14:34:08.932Z,101348.81
2023-05-10T14:39:14.016Z,101395.78
2023-05-10T14:44:17.014Z,101403.06
2023-05-10T14:49:20.036Z,101408.44
2023-05-10T14:54:23.223Z,101404.88
2023-05-10T14:59:26.548Z,101405.50
2023-05-10T15:04:29.815Z,101406.41
2023-05-10T15:09:33.569Z,101401.72
2023-05-10T15:14:37.915Z,101412.22
2023-05-10T15:19:40.934Z,101408.47
2023-05-10T15:24:43.966Z,101406.81
2023-05-10T15:29:46.990Z,101408.78
2023-05-10T15:34:49.973Z,101405.19
2023-05-10T15:39:52.968Z,101384.06
2023-05-10T15:44:56.052Z,101389.97
2023-05-10T15:49:59.112Z,101392.88
2023-05-10T15:55:02.128Z,101394.88
2023-05-10T16:00:07.193Z,101409.66
2023-05-10T16:05:16.047Z,101409.97
2023-05-10T16:10:19.255Z,101410.19
2023-05-10T16:15:22.958Z,101402.09
2023-05-10T16:20:26.137Z,101405.22
2023-05-10T16:25:29.099Z,101420.97
2023-05-10T16:30:32.334Z,101413.00
2023-05-10T16:35:35.365Z,101420.00
2023-05-10T16:40:38.509Z,101433.13
2023-05-10T16:45:42.606Z,101424.41
2023-05-10T16:50:45.733Z,101419.44
2023-05-10T16:55:48.752Z,101419.88
2023-05-10T17:00:51.760Z,101437.31
2023-05-10T17:05:54.790Z,101436.81
2023-05-10T17:11:01.958Z,101445.97
2023-05-10T17:16:05.124Z,101453.03
2023-05-10T17:21:09.597Z,101454.03
2023-05-10T17:26:12.787Z,101452.28
2023-05-10T17:31:15.974Z,101474.72
2023-05-10T17:36:19.152Z,101471.56
2023-05-10T17:41:22.212Z,101477.00
2023-05-10T17:46:25.422Z,101463.22
2023-05-10T17:51:29.234Z,101472.94
2023-05-10T17:56:32.263Z,101462.34
2023-05-10T18:01:35.387Z,101447.69
2023-05-10T18:06:39.242Z,101480.34
2023-05-10T18:11:42.475Z,101479.56
2023-05-10T18:16:45.626Z,101489.59
2023-05-10T18:21:52.590Z,101462.13
2023-05-10T18:26:56.023Z,101474.47
2023-05-10T18:31:59.049Z,101477.16
2023-05-10T18:37:07.891Z,101469.28
2023-05-10T18:42:11.491Z,101466.06
2023-05-10T18:47:15.253Z,101473.25
2023-05-10T18:52:18.261Z,101474.13
2023-05-10T18:57:22.364Z,101465.09
2023-05-10T19:02:27.004Z,101481.97
2023-05-10T19:07:29.994Z,101472.97
2023-05-10T19:12:33.283Z,101462.53
2023-05-10T19:17:37.018Z,101451.94
2023-05-10T19:27:45.993Z,101452.78
2023-05-10T19:32:49.156Z,101434.78
2023-05-10T19:37:53.140Z,101450.44
2023-05-10T19:42:57.381Z,101432.81
2023-05-10T19:48:00.400Z,101419.84
2023-05-10T19:53:03.564Z,101412.78
2023-05-10T19:58:06.789Z,101413.66
2023-05-10T20:03:09.965Z,101423.78
2023-05-10T20:08:13.086Z,101433.50
2023-05-10T20:13:15.992Z,101437.03
2023-05-10T20:18:18.984Z,101409.25
2023-05-10T20:23:22.582Z,101407.31
2023-05-10T20:28:26.502Z,101395.09
2023-05-10T20:33:29.869Z,101399.69
2023-05-10T20:38:32.923Z,101393.50
2023-05-10T20:43:36.018Z,101402.28
2023-05-10T20:48:39.029Z,101390.38
2023-05-10T20:53:42.018Z,101392.22
2023-05-10T20:58:45.283Z,101394.50
2023-05-10T21:03:48.340Z,101377.25
2023-05-10T21:08:51.380Z,101391.47
2023-05-10T21:13:54.389Z,101404.47
2023-05-10T21:18:57.443Z,101411.38
2023-05-10T21:24:00.461Z,101394.00
2023-05-10T21:29:05.055Z,101365.91
2023-05-10T21:34:10.886Z,101375.69
2023-05-10T21:39:13.882Z,101379.66
2023-05-10T21:44:16.866Z,101377.78
2023-05-10T21:49:19.870Z,101354.09
2023-05-10T21:54:23.008Z,101350.00
2023-05-10T21:59:26.067Z,101349.25
2023-05-10T22:04:29.066Z,101343.19
2023-05-10T22:09:32.012Z,101352.28
2023-05-10T22:14:35.232Z,101311.22
2023-05-10T22:19:38.260Z,101352.28
2023-05-10T22:24:41.239Z,101346.25
2023-05-10T22:29:44.218Z,101332.13
2023-05-10T22:34:47.219Z,101361.75
2023-05-10T22:39:50.297Z,101370.00
2023-05-10T22:44:53.283Z,101341.25
2023-05-10T22:49:57.797Z,101344.19
2023-05-10T22:55:00.781Z,101370.84
2023-05-10T23:00:05.267Z,101354.09
2023-05-10T23:05:09.841Z,101336.19
2023-05-10T23:10:13.000Z,101354.41
2023-05-10T23:15:15.961Z,101356.34
2023-05-10T23:20:19.294Z,101359.28
2023-05-10T23:25:22.618Z,101349.00
2023-05-10T23:30:25.742Z,101350.75
2023-05-10T23:35:28.761Z,101325.81
2023-05-10T23:40:31.782Z,101337.41
2023-05-10T23:45:34.743Z,101342.59
2023-05-10T23:50:44.529Z,101351.00
2023-05-10T23:55:47.477Z,101336.81
